Portada
METAR-TAF:

METAR-TAF

Aeroports :

Aeroport Internacional de Cam Ranh

Cam Ranh, Vietnam

latitud: 11-59-53N, longitud: 109-13-10E, altitud: 12 m

Observació

L'informe es va fer fa 1 hora i 6 minuts, a les 13:30 UTC
Vent 13 kt del Nord-Est
Temperatura 26°C
Humitat 89%
Pressió 1015 hPa
Visibilitat 10 km o més
Escasses núvols a una alçada de 1500 ft

METAR: VVCR 261330Z 04013KT 9999 FEW015 26/24 Q1015 NOSIG

Hora: 21:36 (14:36 UTC)

Pronòstic

L'informe es va fer fa 3 hores i 36 minuts, a les 11:00 UTC
Pronòstic vàlid del 26 a les 12 UTC al 27 a les 12 UTC
Vent 12 kt del Est/Nord-Est
Visibilitat 10 km o més
Escasses núvols a una alçada de 1500 ft

TAF: VVCR 261100Z 2612/2712 06012KT 9999 FEW015

Observacions i pronòstics meteorològics de més de 4000 aeroports (METAR i TAF).

Les estacions disponibles són els punts grocs i vermells al mapa.

Posi el ratolí al punt desitjat per veure el nom de l'estació.

Feu clic per veure les observacions i els pronòstics meteorològics.

Per canviar el mapa: feu clic els botons verds amb una creu de color negre per apropar; al botó verd amb un guió per allunyar la imatge; o en les fletxes verdes per a mapes adjacents.


METAR-TAF: